M I D A S
Marine Information and Data Acquisition System
Tripno 2035 of the Zeeleeuw from 2011-01-20 09:15:52 to 2011-01-20 16:41:53
Back to CruiseResearch ActivitiesStationsMapUnderway DataData graphs

EquipmentUnitsComments
TimeDGPSUTC
LatitudeDGPSDM.mWGS84
LongitudeDGPSDM.mWGS84
SpeedMeteo Stationm/sRelative wind speed
DirectionMeteo StationdegRelative wind direction
TemperatureMeteo Stationdeg CelciusAir temperature
PressureMeteo StationPaAtmospheric pressure
HumidityMeteo Station%Relative humidity
Missing or incorrect values are displayed as -999
Metereological data collected by the RV Zeeleeuw from 2011-01-20 09:16:14 to 2011-01-20 16:46:21
Time Latitude Longitude Speed Direction Temperature Pressure Humidity
2011-01-20 09:17 51°13.677 2°55.883 0.6 53 5.3 103270 38
2011-01-20 09:18 51°13.691 2°55.786 1.4 305 5.3 103270 37
2011-01-20 09:19 51°13.691 2°55.736 3.5 304 5.3 103270 40
2011-01-20 09:20 51°13.7 2°55.739 1.4 304 5.3 103260 40
2011-01-20 09:21 51°13.693 2°55.721 4.7 353 5.3 103270 38
2011-01-20 09:22 51°13.779 2°55.662 7.7 332 5.3 103260 38
2011-01-20 09:23 51°13.916 2°55.567 9.9 339 5.3 103250 39
2011-01-20 09:24 51°14.069 2°55.458 8.7 345 5.3 103260 40
2011-01-20 09:25 51°14.211 2°55.342 9.5 349 5.3 103250 39
2011-01-20 09:26 51°14.352 2°55.203 9.2 352 5.3 103240 40
2011-01-20 09:27 51°14.508 2°55.041 8.8 350 5.3 103260 41
2011-01-20 09:28 51°14.677 2°54.869 11.3 348 5.3 103250 40
2011-01-20 09:29 51°14.869 2°54.75 10.4 340 5.4 103240 42
2011-01-20 09:30 51°15.066 2°54.694 12.8 343 5.4 103240 41
2011-01-20 09:31 51°15.25 2°54.556 9.7 348 5.4 103250 42
2011-01-20 09:32 51°15.425 2°54.374 14.8 346 5.4 103250 41
2011-01-20 09:33 51°15.597 2°54.186 13.2 348 5.3 103240 43
2011-01-20 09:34 51°15.769 2°53.998 11.9 346 5.4 103240 41
2011-01-20 09:35 51°15.941 2°53.811 13.3 347 5.4 103250 42
2011-01-20 09:36 51°16.109 2°53.618 8.6 349 5.3 103240 42
2011-01-20 09:37 51°16.274 2°53.418 13.5 349 5.4 103250 42
2011-01-20 09:38 51°16.44 2°53.222 14.7 347 5.4 103240 42
2011-01-20 09:39 51°16.607 2°53.039 12.5 346 5.4 103240 42
2011-01-20 09:40 51°16.776 2°52.87 13.8 345 5.4 103240 42
2011-01-20 09:41 51°16.946 2°52.705 14.3 346 5.4 103220 41
2011-01-20 09:42 51°17.122 2°52.548 10.8 349 5.4 103240 40
2011-01-20 09:43 51°17.295 2°52.396 11.4 347 5.5 103240 43
2011-01-20 09:44 51°17.47 2°52.243 12.1 348 5.5 103250 43
2011-01-20 09:45 51°17.645 2°52.085 11.1 348 5.4 103240 43
2011-01-20 09:46 51°17.818 2°51.927 14.6 350 5.4 103250 42
2011-01-20 09:47 51°17.994 2°51.779 16 351 5.4 103250 41
2011-01-20 09:48 51°18.17 2°51.627 10 347 5.4 103250 41
2011-01-20 09:49 51°18.346 2°51.47 13.2 349 5.4 103250 39
2011-01-20 09:50 51°18.519 2°51.308 10.6 351 5.5 103250 40
2011-01-20 09:51 51°18.692 2°51.149 10.4 346 5.4 103260 40
2011-01-20 09:52 51°18.868 2°50.993 13.2 348 5.4 103260 41
2011-01-20 09:53 51°19.045 2°50.838 12.6 346 5.4 103260 40
2011-01-20 09:54 51°19.219 2°50.68 10.5 344 5.4 103250 40
2011-01-20 09:55 51°19.401 2°50.542 11.2 347 5.3 103250 39
2011-01-20 09:56 51°19.579 2°50.405 13.1 346 5.4 103250 38
2011-01-20 09:57 51°19.759 2°50.261 14.8 347 5.5 103250 38
2011-01-20 09:58 51°19.937 2°50.11 11.1 350 5.5 103270 37
2011-01-20 09:59 51°20.116 2°49.957 9.7 347 5.5 103260 39
2011-01-20 10:00 51°20.292 2°49.8 14.1 346 5.5 103270 39
2011-01-20 10:01 51°20.47 2°49.649 13.6 347 5.5 103270 39
2011-01-20 10:02 51°20.652 2°49.502 14.2 342 5.5 103270 39
2011-01-20 10:03 51°20.835 2°49.36 11.9 344 5.5 103270 39
2011-01-20 10:04 51°21.015 2°49.224 13.7 343 5.6 103270 39
2011-01-20 10:05 51°21.193 2°49.084 11 345 5.5 103270 39
2011-01-20 10:06 51°21.373 2°48.941 12.9 346 5.5 103260 37
2011-01-20 10:07 51°21.554 2°48.798 13.4 344 5.5 103270 39
2011-01-20 10:08 51°21.734 2°48.659 12.3 346 5.5 103240 39
2011-01-20 10:09 51°21.918 2°48.528 16 347 5.5 103270 39
2011-01-20 10:10 51°22.102 2°48.389 15.9 346 5.5 103260 39
2011-01-20 10:11 51°22.283 2°48.252 12.1 346 5.5 103260 39
2011-01-20 10:12 51°22.459 2°48.11 12.8 344 5.5 103270 39
2011-01-20 10:13 51°22.634 2°47.972 6.4 345 5.4 103270 39
2011-01-20 10:14 51°22.808 2°47.833 11.9 345 5.5 103290 37
2011-01-20 10:15 51°22.987 2°47.693 7.1 346 5.5 103270 38
2011-01-20 10:16 51°23.17 2°47.553 11.5 347 5.5 103260 39
2011-01-20 10:17 51°23.354 2°47.418 13.7 345 5.5 103270 38
2011-01-20 10:18 51°23.534 2°47.28 10.8 349 5.5 103260 38
2011-01-20 10:19 51°23.717 2°47.143 10.9 348 5.5 103270 39
2011-01-20 10:20 51°23.899 2°47.004 12 346 5.5 103260 37
2011-01-20 10:21 51°24.081 2°46.863 13.3 349 5.5 103270 38
2011-01-20 10:22 51°24.26 2°46.715 14 346 5.5 103270 38
2011-01-20 10:23 51°24.44 2°46.581 15 347 5.5 103290 39
2011-01-20 10:24 51°24.624 2°46.444 15.7 349 5.5 103260 38
2011-01-20 10:25 51°24.805 2°46.308 16.6 347 5.5 103270 39
2011-01-20 10:26 51°24.988 2°46.174 12.3 348 5.5 103270 39
2011-01-20 10:27 51°25.172 2°46.06 12.2 348 5.5 103280 39
2011-01-20 10:28 51°25.366 2°45.986 15.4 344 5.5 103260 40
2011-01-20 10:29 51°25.556 2°45.955 12.5 340 5.5 103270 40
2011-01-20 10:30 51°25.708 2°46.122 16.1 304 5.4 103290 40
2011-01-20 10:31 51°25.813 2°46.391 12.1 306 5.4 103280 40
2011-01-20 10:32 51°25.921 2°46.662 12.8 307 5.3 103280 40
2011-01-20 10:33 51°26.027 2°46.933 13.3 308 5.3 103280 40
2011-01-20 10:34 51°26.129 2°47.206 12.5 306 5.4 103290 41
2011-01-20 10:35 51°26.231 2°47.48 12.3 307 5.4 103280 41
2011-01-20 10:36 51°26.335 2°47.756 16.3 307 5.4 103290 41
2011-01-20 10:37 51°26.438 2°48.028 10.7 302 5.4 103300 42
2011-01-20 10:38 51°26.538 2°48.302 10.2 304 5.4 103290 41
2011-01-20 10:39 51°26.64 2°48.573 10.4 307 5.3 103290 41
2011-01-20 10:40 51°26.75 2°48.841 13.1 322 5.3 103280 42
2011-01-20 10:41 51°26.859 2°49.109 10.5 304 5.4 103280 42
2011-01-20 10:42 51°26.969 2°49.381 9.8 325 5.4 103290 41
2011-01-20 10:43 51°27.078 2°49.649 14.3 325 5.5 103290 40
2011-01-20 10:44 51°27.185 2°49.922 11.3 304 5.5 103280 41
2011-01-20 10:45 51°27.294 2°50.193 6.3 322 5.5 103280 40
2011-01-20 10:46 51°27.401 2°50.465 16.4 308 5.6 103290 40
2011-01-20 10:47 51°27.507 2°50.737 16.8 306 5.6 103290 40
2011-01-20 10:48 51°27.616 2°51.011 14.9 284 5.6 103290 39
2011-01-20 10:49 51°27.723 2°51.288 12.6 325 5.6 103300 39
2011-01-20 10:50 51°27.829 2°51.563 6.4 288 5.5 103280 39
2011-01-20 10:51 51°27.934 2°51.836 14 286 5.5 103300 40
2011-01-20 10:52 51°28.045 2°52.114 6 283 5.5 103290 40
2011-01-20 10:53 51°28.154 2°52.394 10.5 280 5.5 103290 39
2011-01-20 10:54 51°28.266 2°52.668 13.8 287 5.5 103290 37
2011-01-20 10:55 51°28.377 2°52.933 9.6 283 5.5 103280 38
2011-01-20 10:56 51°28.477 2°53.202 10.3 287 5.6 103280 40
2011-01-20 10:57 51°28.578 2°53.473 6.2 283 5.6 103280 39
2011-01-20 10:58 51°28.676 2°53.743 17.3 285 5.5 103280 40
2011-01-20 10:59 51°28.774 2°54.015 10.7 306 5.5 103290 40
2011-01-20 11:00 51°28.876 2°54.289 12.8 286 5.5 103280 40
2011-01-20 11:01 51°28.996 2°54.546 11.7 282 5.4 103300 39
2011-01-20 11:02 51°29.116 2°54.795 18.6 283 5.5 103300 39
2011-01-20 11:03 51°29.233 2°55.048 11.6 283 5.4 103300 39
2011-01-20 11:04 51°29.348 2°55.305 10.8 281 5.5 103290 40
2011-01-20 11:05 51°29.45 2°55.578 11.8 286 5.4 103290 40
2011-01-20 11:06 51°29.556 2°55.851 16.2 284 5.4 103290 41
2011-01-20 11:07 51°29.659 2°56.123 12.7 281 5.4 103300 40
2011-01-20 11:08 51°29.762 2°56.402 15.9 284 5.4 103300 40
2011-01-20 11:09 51°29.866 2°56.682 14.9 286 5.4 103310 40
2011-01-20 11:10 51°29.971 2°56.961 11.5 323 5.4 103300 40
2011-01-20 11:11 51°30.076 2°57.242 12.7 281 5.4 103300 41
2011-01-20 11:12 51°30.176 2°57.524 14.3 287 5.4 103300 40
2011-01-20 11:13 51°30.279 2°57.808 11.1 282 5.4 103290 41
2011-01-20 11:14 51°30.385 2°58.096 11.8 280 5.4 103300 41
2011-01-20 11:15 51°30.491 2°58.389 10.3 284 5.4 103300 41
2011-01-20 11:16 51°30.599 2°58.684 9.6 304 5.5 103290 41
2011-01-20 11:17 51°30.711 2°58.975 12 305 5.5 103300 41
2011-01-20 11:18 51°30.822 2°59.265 6.4 282 5.4 103290 42
2011-01-20 11:19 51°30.936 2°59.554 5.4 283 5.4 103300 41
2011-01-20 11:20 51°31.049 2°59.845 10.9 287 5.4 103300 42
2011-01-20 11:21 51°31.167 3°0.135 13.4 323 5.4 103290 42
2011-01-20 11:22 51°31.278 3°0.427 14.7 286 5.4 103300 42
2011-01-20 11:23 51°31.39 3°0.719 7.1 279 5.4 103290 42
2011-01-20 11:24 51°31.513 3°1.006 12.8 284 5.4 103290 42
2011-01-20 11:25 51°31.636 3°1.289 14.7 281 5.4 103290 41
2011-01-20 11:26 51°31.761 3°1.576 14.1 327 5.4 103280 43
2011-01-20 11:27 51°31.875 3°1.877 12.9 284 5.4 103280 42
2011-01-20 11:28 51°31.986 3°2.183 17.3 325 5.3 103290 42
2011-01-20 11:29 51°32.1 3°2.49 13.5 283 5.3 103280 43
2011-01-20 11:30 51°32.212 3°2.797 11.3 325 5.4 103290 43
2011-01-20 11:31 51°32.327 3°3.101 13.9 282 5.3 103290 43
2011-01-20 11:32 51°32.443 3°3.394 14.2 284 5.3 103300 43
2011-01-20 11:33 51°32.612 3°3.587 5.9 282 5.3 103300 43
2011-01-20 11:34 51°32.791 3°3.489 10 350 5.2 103290 43
2011-01-20 11:35 51°32.921 3°3.26 14.1 353 5.2 103300 44
2011-01-20 11:36 51°33.057 3°3.041 12.5 355 5.1 103290 43
2011-01-20 11:37 51°33.194 3°2.823 12.4 354 5.1 103280 44
2011-01-20 11:38 51°33.335 3°2.602 12.5 353 5.1 103280 44
2011-01-20 11:39 51°33.441 3°2.348 5.3 2 5.1 103270 45
2011-01-20 11:40 51°33.353 3°2.065 -999 11 5.1 103320 44
2011-01-20 11:41 51°33.244 3°1.785 0.2 12 5.1 103300 44
2011-01-20 11:42 51°33.136 3°1.504 -999 18 5.1 103310 44
2011-01-20 11:43 51°33.033 3°1.224 -999 23 4.9 103310 42
2011-01-20 11:44 51°32.93 3°0.943 6.6 19 5 103310 41
2011-01-20 11:45 51°32.82 3°0.67 3.4 27 5 103310 38
2011-01-20 11:46 51°32.7 3°0.407 3.6 27 5.1 103310 38
2011-01-20 11:47 51°32.576 3°0.148 3 21 5.2 103310 39
2011-01-20 11:48 51°32.457 2°59.885 2.7 17 5.2 103300 38
2011-01-20 11:49 51°32.337 2°59.626 2.7 20 5.2 103310 37
2011-01-20 11:50 51°32.226 2°59.354 3.2 21 5.2 103310 37
2011-01-20 11:51 51°32.12 2°59.081 4.8 27 5.3 103310 37
2011-01-20 11:52 51°32.008 2°58.814 5.3 18 5.3 103310 38
2011-01-20 11:53 51°31.901 2°58.544 3.2 19 5.3 103300 37
2011-01-20 11:54 51°31.791 2°58.273 3.2 4 5.3 103300 39
2011-01-20 11:55 51°31.679 2°58.008 4.5 13 5.4 103300 38
2011-01-20 11:56 51°31.567 2°57.739 4.7 21 5.3 103310 37
2011-01-20 11:57 51°31.461 2°57.468 4.2 18 5.3 103300 37
2011-01-20 11:58 51°31.349 2°57.205 4.8 15 5.3 103310 37
2011-01-20 11:59 51°31.249 2°56.942 4.2 11 5.3 103300 37
2011-01-20 12:00 51°31.152 2°56.674 5.3 16 5.4 103310 38
2011-01-20 12:01 51°31.057 2°56.407 4.9 10 5.3 103300 36
2011-01-20 12:02 51°30.956 2°56.144 3.5 11 5.4 103300 37
2011-01-20 12:03 51°30.858 2°55.877 4.3 7 5.4 103300 38
2011-01-20 12:04 51°30.761 2°55.61 3.8 10 5.4 103300 37
2011-01-20 12:05 51°30.663 2°55.342 4.1 25 5.3 103300 36
2011-01-20 12:06 51°30.564 2°55.073 5.6 21 5.4 103290 37
2011-01-20 12:07 51°30.462 2°54.809 5 20 5.4 103300 36
2011-01-20 12:08 51°30.362 2°54.544 3.3 3 5.4 103300 37
2011-01-20 12:09 51°30.264 2°54.283 2.3 21 5.4 103300 37
2011-01-20 12:10 51°30.162 2°54.019 4.4 15 5.5 103310 37
2011-01-20 12:11 51°30.067 2°53.756 5.8 22 5.5 103300 38
2011-01-20 12:12 51°30.031 2°53.473 10 359 5.5 103290 37
2011-01-20 12:13 51°30.189 2°53.291 10.7 351 5.5 103250 36
2011-01-20 12:14 51°30.372 2°53.144 13.6 354 5.5 103260 36
2011-01-20 12:15 51°30.558 2°52.997 13.3 355 5.5 103250 36
2011-01-20 12:16 51°30.74 2°52.84 12.2 349 5.5 103260 37
2011-01-20 12:17 51°30.916 2°52.666 10.5 354 5.5 103270 37
2011-01-20 12:18 51°31.091 2°52.496 15 350 5.5 103260 38
2011-01-20 12:19 51°31.29 2°52.43 14.1 333 5.5 103280 38
2011-01-20 12:20 51°31.437 2°52.699 18.6 308 5.5 103290 39
2011-01-20 12:21 51°31.551 2°53.026 15.2 305 5.5 103280 39
2011-01-20 12:22 51°31.65 2°53.361 13.6 309 5.6 103270 38
2011-01-20 12:23 51°31.767 2°53.68 15.4 305 5.5 103280 39
2011-01-20 12:24 51°31.878 2°54.013 14.3 307 5.5 103280 40
2011-01-20 12:25 51°31.981 2°54.345 15.4 305 5.4 103270 40
2011-01-20 12:26 51°32.088 2°54.687 13.7 306 5.4 103260 39
2011-01-20 12:27 51°32.18 2°55.037 13.1 304 5.4 103250 38
2011-01-20 12:28 51°32.264 2°55.385 12.2 307 5.4 103270 38
2011-01-20 12:29 51°32.355 2°55.731 12.9 306 5.4 103280 39
2011-01-20 12:30 51°32.487 2°56.037 13 307 5.4 103290 37
2011-01-20 12:31 51°32.638 2°56.307 15.8 331 5.5 103290 40
2011-01-20 12:32 51°32.835 2°56.46 6.5 339 5.4 103350 39
2011-01-20 12:33 51°32.999 2°56.397 5.1 358 5.4 103280 39
2011-01-20 12:34 51°33.056 2°56.239 9 9 5.4 103290 40
2011-01-20 12:35 51°33.106 2°56.138 6.6 7 5.3 103290 40
2011-01-20 12:36 51°33.134 2°56.12 9.4 6 5.3 103290 41
2011-01-20 12:37 51°33.151 2°56.125 9.1 12 5.3 103280 39
2011-01-20 12:38 51°33.162 2°56.139 9 8 5.3 103290 39
2011-01-20 12:39 51°33.168 2°56.157 8.9 9 5.3 103290 40
2011-01-20 12:40 51°33.173 2°56.176 7.1 14 5.3 103280 39
2011-01-20 12:41 51°33.176 2°56.199 7.6 23 5.3 103290 40
2011-01-20 12:42 51°33.177 2°56.222 6.9 26 5.4 103290 39
2011-01-20 12:43 51°33.18 2°56.246 8.4 27 5.4 103280 40
2011-01-20 12:44 51°33.183 2°56.271 6.3 28 5.3 103300 40
2011-01-20 12:45 51°33.186 2°56.293 7.1 27 5.3 103290 39
2011-01-20 12:46 51°33.19 2°56.315 6.2 25 5.4 103290 39
2011-01-20 12:47 51°33.195 2°56.338 8.2 28 5.4 103300 40
2011-01-20 12:48 51°33.199 2°56.361 8.2 31 5.3 103300 39
2011-01-20 12:49 51°33.203 2°56.386 8.8 26 5.3 103290 40
2011-01-20 12:50 51°33.207 2°56.409 8.3 29 5.3 103300 40
2011-01-20 12:51 51°33.21 2°56.432 9 26 5.3 103290 38
2011-01-20 12:52 51°33.212 2°56.455 6.7 29 5.3 103290 37
2011-01-20 12:53 51°33.216 2°56.476 6.3 28 5.3 103300 39
2011-01-20 12:54 51°33.222 2°56.493 6.3 30 5.3 103300 39
2011-01-20 12:55 51°33.228 2°56.512 6.6 24 5.4 103290 40
2011-01-20 12:56 51°33.234 2°56.532 7.6 23 5.3 103290 40
2011-01-20 12:57 51°33.239 2°56.55 7.2 26 5.3 103300 39
2011-01-20 12:58 51°33.244 2°56.57 8.8 27 5.3 103290 39
2011-01-20 12:59 51°33.249 2°56.588 7 29 5.3 103300 39
2011-01-20 13:00 51°33.255 2°56.606 7.4 28 5.3 103300 40
2011-01-20 13:01 51°33.262 2°56.622 6.6 30 5.3 103290 40
2011-01-20 13:02 51°33.272 2°56.615 7 35 5.3 103300 40
2011-01-20 13:03 51°33.256 2°56.551 5.4 55 5.2 103310 39
2011-01-20 13:04 51°33.191 2°56.444 2.1 42 5.3 103310 39
2011-01-20 13:05 51°33.126 2°56.318 2 44 5.3 103310 40
2011-01-20 13:06 51°33.083 2°56.212 6.1 33 5.3 103310 41
2011-01-20 13:07 51°33.068 2°56.115 5 34 5.3 103300 41
2011-01-20 13:08 51°33.07 2°56.066 6.5 31 5.3 103310 40
2011-01-20 13:09 51°33.081 2°56.048 6.3 34 5.3 103290 39
2011-01-20 13:10 51°33.091 2°56.05 5.9 32 5.3 103290 39
2011-01-20 13:11 51°33.1 2°56.066 6 25 5.3 103300 41
2011-01-20 13:12 51°33.109 2°56.095 7.1 24 5.4 103300 42
2011-01-20 13:13 51°33.115 2°56.129 7.7 29 5.3 103290 41
2011-01-20 13:14 51°33.12 2°56.166 7.3 33 5.3 103280 40
2011-01-20 13:15 51°33.126 2°56.193 7.5 30 5.3 103280 40
2011-01-20 13:16 51°33.134 2°56.217 9.1 32 5.4 103280 40
2011-01-20 13:17 51°33.14 2°56.24 7.4 27 5.3 103280 39
2011-01-20 13:18 51°33.147 2°56.263 7.3 26 5.3 103280 39
2011-01-20 13:19 51°33.153 2°56.288 8 27 5.3 103280 40
2011-01-20 13:20 51°33.159 2°56.31 7.4 27 5.3 103270 39
2011-01-20 13:21 51°33.165 2°56.334 6.4 32 5.4 103280 40
2011-01-20 13:22 51°33.171 2°56.359 8.1 28 5.4 103280 39
2011-01-20 13:23 51°33.177 2°56.383 7.7 25 5.4 103280 40
2011-01-20 13:24 51°33.183 2°56.408 8 27 5.3 103280 38
2011-01-20 13:25 51°33.188 2°56.433 8.6 27 5.4 103280 39
2011-01-20 13:26 51°33.196 2°56.453 7.4 33 5.4 103280 37
2011-01-20 13:27 51°33.202 2°56.448 6.3 40 5.4 103280 37
2011-01-20 13:28 51°33.199 2°56.43 5.8 56 5.4 103290 36
2011-01-20 13:29 51°33.178 2°56.401 7.5 51 5.3 103290 36
2011-01-20 13:30 51°33.159 2°56.355 6.4 44 5.4 103290 36
2011-01-20 13:31 51°33.135 2°56.305 6.3 43 5.4 103290 37
2011-01-20 13:32 51°33.107 2°56.261 5.1 51 5.4 103290 36
2011-01-20 13:33 51°33.078 2°56.215 6.5 57 5.4 103300 38
2011-01-20 13:34 51°33.068 2°56.172 7.1 33 5.5 103290 39
2011-01-20 13:35 51°33.078 2°56.147 5.5 25 5.4 103280 38
2011-01-20 13:36 51°33.097 2°56.14 9.6 18 5.5 103280 40
2011-01-20 13:37 51°33.113 2°56.145 6.3 17 5.4 103280 40
2011-01-20 13:38 51°33.124 2°56.155 6 23 5.4 103280 39
2011-01-20 13:39 51°33.141 2°56.148 7.1 21 5.4 103280 38
2011-01-20 13:40 51°33.17 2°56.103 12.1 14 5.4 103280 38
2011-01-20 13:41 51°33.199 2°56.078 11.3 7 5.4 103280 38
2011-01-20 13:42 51°33.219 2°56.075 12.2 11 5.4 103280 37
2011-01-20 13:43 51°33.233 2°56.079 9.6 10 5.4 103280 37
2011-01-20 13:44 51°33.244 2°56.088 10.6 13 5.3 103280 36
2011-01-20 13:45 51°33.253 2°56.101 8 20 5.4 103280 37
2011-01-20 13:46 51°33.261 2°56.115 11.1 19 5.4 103290 38
2011-01-20 13:47 51°33.268 2°56.133 9.9 22 5.3 103290 36
2011-01-20 13:48 51°33.277 2°56.14 8 12 5.4 103290 36
2011-01-20 13:49 51°33.324 2°56.11 8.2 342 5.4 103280 36
2011-01-20 13:50 51°33.388 2°56.177 8.9 281 5.4 103270 37
2011-01-20 13:51 51°33.387 2°56.377 9 309 5.5 103290 36
2011-01-20 13:52 51°33.338 2°56.684 10.2 287 5.5 103270 38
2011-01-20 13:53 51°33.371 2°57.044 12.1 306 5.5 103260 37
2011-01-20 13:54 51°33.423 2°57.407 13.3 305 5.6 103260 38
2011-01-20 13:55 51°33.492 2°57.76 17.8 306 5.5 103270 36
2011-01-20 13:56 51°33.581 2°58.101 16.1 307 5.6 103250 37
2011-01-20 13:57 51°33.682 2°58.439 13.4 308 5.6 103280 37
2011-01-20 13:58 51°33.784 2°58.777 12.7 308 5.6 103290 37
2011-01-20 13:59 51°33.883 2°59.112 15.2 286 5.5 103280 37
2011-01-20 14:00 51°33.983 2°59.446 15.2 302 5.6 103290 37
2011-01-20 14:01 51°34.08 2°59.775 15.1 309 5.5 103280 38
2011-01-20 14:02 51°34.179 3°0.116 16.1 304 5.5 103270 39
2011-01-20 14:03 51°34.29 3°0.437 12.5 286 5.5 103260 38
2011-01-20 14:04 51°34.481 3°0.574 16.6 341 5.5 103270 39
2011-01-20 14:05 51°34.647 3°0.385 11.5 352 5.5 103260 40
2011-01-20 14:06 51°34.812 3°0.154 11.8 351 5.4 103250 39
2011-01-20 14:07 51°34.977 2°59.93 15.1 356 5.4 103250 38
2011-01-20 14:08 51°35.142 2°59.707 10.8 356 5.4 103260 39
2011-01-20 14:09 51°35.194 2°59.42 7.5 22 5.4 103270 39
2011-01-20 14:10 51°35.114 2°59.147 5.4 15 5.4 103300 40
2011-01-20 14:11 51°35.035 2°58.859 5.5 22 5.4 103300 38
2011-01-20 14:12 51°34.956 2°58.57 4.3 26 5.4 103300 39
2011-01-20 14:13 51°34.868 2°58.301 5.3 22 5.4 103300 41
2011-01-20 14:14 51°34.769 2°58.038 4.2 27 5.4 103300 40
2011-01-20 14:15 51°34.665 2°57.771 6.8 22 5.4 103300 40
2011-01-20 14:16 51°34.565 2°57.504 5.1 23 5.4 103300 38
2011-01-20 14:17 51°34.467 2°57.231 5.6 15 5.4 103300 39
2011-01-20 14:18 51°34.365 2°56.962 5.8 18 5.4 103310 38
2011-01-20 14:19 51°34.263 2°56.699 5 25 5.4 103310 38
2011-01-20 14:20 51°34.161 2°56.421 4.5 30 5.4 103310 38
2011-01-20 14:21 51°34.062 2°56.15 3.3 20 5.5 103310 39
2011-01-20 14:22 51°33.963 2°55.889 3 18 5.4 103320 39
2011-01-20 14:23 51°33.86 2°55.628 4.3 30 5.5 103310 38
2011-01-20 14:24 51°33.76 2°55.355 4.9 27 5.5 103310 39
2011-01-20 14:25 51°33.656 2°55.091 4.5 25 5.5 103310 38
2011-01-20 14:26 51°33.556 2°54.823 4.4 28 5.5 103310 40
2011-01-20 14:27 51°33.453 2°54.555 5.1 29 5.5 103320 39
2011-01-20 14:28 51°33.356 2°54.293 5 29 5.5 103310 39
2011-01-20 14:29 51°33.253 2°54.029 6.1 25 5.5 103320 39
2011-01-20 14:30 51°33.153 2°53.773 3.8 29 5.5 103320 39
2011-01-20 14:31 51°33.054 2°53.51 4.7 31 5.5 103320 39
2011-01-20 14:32 51°32.95 2°53.239 4.1 28 5.4 103320 38
2011-01-20 14:33 51°32.85 2°52.979 4.7 28 5.5 103320 38
2011-01-20 14:34 51°32.746 2°52.711 4.8 23 5.5 103310 38
2011-01-20 14:35 51°32.64 2°52.449 3.6 15 5.5 103320 38
2011-01-20 14:36 51°32.543 2°52.18 5.9 24 5.5 103310 39
2011-01-20 14:37 51°32.444 2°51.918 4.7 22 5.5 103310 38
2011-01-20 14:38 51°32.342 2°51.645 3.4 18 5.5 103320 39
2011-01-20 14:39 51°32.241 2°51.379 5.1 27 5.5 103310 38
2011-01-20 14:40 51°32.137 2°51.106 3.1 33 5.5 103320 40
2011-01-20 14:41 51°32.03 2°50.84 3.9 34 5.5 103310 38
2011-01-20 14:42 51°31.92 2°50.589 1.5 16 5.5 103320 38
2011-01-20 14:43 51°31.808 2°50.322 1.9 26 5.6 103320 40
2011-01-20 14:44 51°31.7 2°50.058 5.4 22 5.5 103320 39
2011-01-20 14:45 51°31.588 2°49.799 4.9 26 5.5 103320 38
2011-01-20 14:46 51°31.48 2°49.546 4.5 25 5.5 103320 38
2011-01-20 14:47 51°31.368 2°49.292 4.7 21 5.5 103320 38
2011-01-20 14:48 51°31.266 2°49.034 3.8 30 5.6 103320 40
2011-01-20 14:49 51°31.151 2°48.772 3.6 27 5.5 103320 39
2011-01-20 14:50 51°31.077 2°48.502 9.3 10 5.5 103320 40
2011-01-20 14:51 51°31.018 2°48.226 0.2 41 5.5 103310 39
2011-01-20 14:52 51°30.86 2°48.042 3 29 5.5 103330 40
2011-01-20 14:53 51°30.736 2°47.806 0.8 20 5.6 103330 39
2011-01-20 14:54 51°30.611 2°47.566 1.8 30 5.5 103320 39
2011-01-20 14:55 51°30.503 2°47.304 3.7 22 5.6 103320 39
2011-01-20 14:56 51°30.398 2°47.037 3 17 5.6 103320 41
2011-01-20 14:57 51°30.293 2°46.764 3.5 16 5.5 103320 41
2011-01-20 14:58 51°30.181 2°46.506 3.4 22 5.5 103320 39
2011-01-20 14:59 51°30.077 2°46.244 -999 13 5.5 103320 40
2011-01-20 15:00 51°29.981 2°45.964 -999 25 5.5 103320 40
2011-01-20 15:01 51°29.882 2°45.693 -999 12 5.5 103320 40
2011-01-20 15:02 51°29.781 2°45.426 -999 18 5.5 103330 40
2011-01-20 15:03 51°29.68 2°45.153 -999 27 5.6 103320 41
2011-01-20 15:04 51°29.581 2°44.884 4.5 25 5.6 103320 41
2011-01-20 15:05 51°29.484 2°44.611 0.5 29 5.6 103320 40
2011-01-20 15:06 51°29.383 2°44.337 -999 23 5.6 103330 42
2011-01-20 15:07 51°29.286 2°44.06 4.3 24 5.6 103320 42
2011-01-20 15:08 51°29.187 2°43.794 3.1 24 5.6 103320 42
2011-01-20 15:09 51°29.086 2°43.52 3.3 24 5.6 103330 42
2011-01-20 15:10 51°28.985 2°43.251 -999 17 5.6 103330 42
2011-01-20 15:11 51°28.886 2°42.979 0.1 19 5.6 103330 42
2011-01-20 15:12 51°28.776 2°42.718 -999 22 5.6 103320 42
2011-01-20 15:13 51°28.666 2°42.454 -999 28 5.6 103330 42
2011-01-20 15:14 51°28.56 2°42.192 -999 20 5.6 103330 42
2011-01-20 15:15 51°28.452 2°41.935 -999 17 5.6 103330 42
2011-01-20 15:16 51°28.339 2°41.664 -999 16 5.6 103330 43
2011-01-20 15:17 51°28.237 2°41.406 -999 25 5.6 103330 42
2011-01-20 15:18 51°28.13 2°41.137 5.8 17 5.6 103310 41
2011-01-20 15:19 51°28.025 2°40.874 5.7 25 5.6 103330 42
2011-01-20 15:20 51°27.918 2°40.615 5.4 27 5.6 103330 40
2011-01-20 15:21 51°27.775 2°40.421 0.7 287 5.6 103330 41
2011-01-20 15:22 51°27.587 2°40.463 0.1 282 5.6 103330 42
2011-01-20 15:23 51°27.388 2°40.549 4 284 5.6 103330 42
2011-01-20 15:24 51°27.204 2°40.676 6 283 5.7 103320 43
2011-01-20 15:25 51°27.017 2°40.824 7.1 285 5.7 103320 43
2011-01-20 15:26 51°26.828 2°40.958 9.1 281 5.7 103320 41
2011-01-20 15:27 51°26.637 2°41.102 7.8 285 5.6 103320 41
2011-01-20 15:28 51°26.472 2°41.307 7.1 279 5.7 103310 41
2011-01-20 15:29 51°26.296 2°41.483 7.9 280 5.7 103310 42
2011-01-20 15:30 51°26.124 2°41.654 6.4 280 5.6 103320 42
2011-01-20 15:31 51°25.945 2°41.837 6.1 283 5.6 103320 42
2011-01-20 15:32 51°25.769 2°42.012 8.1 283 5.6 103310 42
2011-01-20 15:33 51°25.595 2°42.187 8.8 281 5.6 103310 43
2011-01-20 15:34 51°25.418 2°42.366 8.5 281 5.5 103330 42
2011-01-20 15:35 51°25.246 2°42.543 8.8 286 5.5 103310 43
2011-01-20 15:36 51°25.068 2°42.72 9.5 282 5.6 103320 42
2011-01-20 15:37 51°24.894 2°42.896 8.9 281 5.5 103320 43
2011-01-20 15:38 51°24.711 2°43.065 8.9 286 5.5 103300 42
2011-01-20 15:39 51°24.534 2°43.224 9.7 281 5.5 103310 43
2011-01-20 15:40 51°24.357 2°43.397 7.4 280 5.5 103330 42
2011-01-20 15:41 51°24.172 2°43.572 7.5 281 5.5 103310 43
2011-01-20 15:42 51°23.991 2°43.734 6.7 285 5.5 103320 43
2011-01-20 15:43 51°23.806 2°43.913 7.7 285 5.5 103320 42
2011-01-20 15:44 51°23.628 2°44.084 7.6 286 5.5 103310 42
2011-01-20 15:45 51°23.439 2°44.248 7.9 278 5.4 103320 42
2011-01-20 15:46 51°23.257 2°44.414 7.2 281 5.4 103310 43
2011-01-20 15:47 51°23.07 2°44.577 7.1 286 5.4 103330 43
2011-01-20 15:48 51°22.885 2°44.745 10.2 307 5.3 103320 43
2011-01-20 15:49 51°22.705 2°44.906 7.4 307 5.3 103330 41
2011-01-20 15:50 51°22.518 2°45.073 6.9 304 5.4 103320 43
2011-01-20 15:51 51°22.338 2°45.242 9.1 302 5.4 103320 43
2011-01-20 15:52 51°22.157 2°45.402 9.5 303 5.3 103320 42
2011-01-20 15:53 51°21.976 2°45.561 6.5 311 5.3 103320 43
2011-01-20 15:54 51°21.788 2°45.72 8.6 306 5.3 103330 43
2011-01-20 15:55 51°21.605 2°45.879 7.9 302 5.3 103320 42
2011-01-20 15:56 51°21.419 2°46.041 8.3 311 5.3 103320 42
2011-01-20 15:57 51°21.231 2°46.199 7.8 302 5.3 103320 42
2011-01-20 15:58 51°21.045 2°46.358 9.4 310 5.3 103320 42
2011-01-20 15:59 51°20.855 2°46.521 8.2 308 5.3 103330 41
2011-01-20 16:00 51°20.669 2°46.666 4.9 310 5.3 103330 43
2011-01-20 16:01 51°20.472 2°46.795 8.1 306 5.4 103330 42
2011-01-20 16:02 51°20.284 2°46.939 8 311 5.3 103330 42
2011-01-20 16:03 51°20.093 2°47.089 6 306 5.3 103330 42
2011-01-20 16:04 51°19.902 2°47.233 7 308 5.3 103320 42
2011-01-20 16:05 51°19.713 2°47.383 7.8 310 5.2 103330 41
2011-01-20 16:06 51°19.523 2°47.525 6.1 308 5.3 103330 42
2011-01-20 16:07 51°19.331 2°47.672 6.3 309 5.3 103330 41
2011-01-20 16:08 51°19.135 2°47.82 6.4 308 5.3 103330 42
2011-01-20 16:09 51°18.944 2°47.954 7.4 305 5.3 103330 41
2011-01-20 16:10 51°18.751 2°48.097 6.3 310 5.3 103340 42
2011-01-20 16:11 51°18.556 2°48.219 6.7 311 5.3 103340 43
2011-01-20 16:12 51°18.366 2°48.352 6.3 309 5.3 103330 42
2011-01-20 16:13 51°18.176 2°48.481 10.1 308 5.3 103330 42
2011-01-20 16:14 51°17.988 2°48.627 6.9 310 5.2 103330 43
2011-01-20 16:15 51°17.801 2°48.786 7 310 5.2 103330 43
2011-01-20 16:16 51°17.612 2°48.924 7.2 309 5.3 103340 42
2011-01-20 16:17 51°17.423 2°49.073 7.3 307 5.3 103330 42
2011-01-20 16:18 51°17.234 2°49.231 8.2 307 5.3 103330 43
2011-01-20 16:19 51°17.046 2°49.388 7.3 308 5.3 103330 44
2011-01-20 16:20 51°16.86 2°49.534 7.2 310 5.3 103340 44
2011-01-20 16:21 51°16.665 2°49.682 6.7 303 5.3 103340 43
2011-01-20 16:22 51°16.476 2°49.824 6.5 303 5.2 103340 43
2011-01-20 16:23 51°16.291 2°49.977 7.4 311 5.2 103340 43
2011-01-20 16:24 51°16.123 2°50.171 7.3 306 5.2 103340 42
2011-01-20 16:25 51°15.975 2°50.405 4.4 309 5.2 103340 42
2011-01-20 16:26 51°15.846 2°50.676 10.6 308 5.2 103320 42
2011-01-20 16:27 51°15.752 2°50.967 11.2 308 5.2 103320 42
2011-01-20 16:28 51°15.66 2°51.273 11.7 310 5.3 103310 43
2011-01-20 16:29 51°15.579 2°51.571 13.8 310 5.3 103300 43
2011-01-20 16:30 51°15.497 2°51.876 13.9 309 5.3 103330 44
2011-01-20 16:31 51°15.413 2°52.178 13.8 310 5.2 103310 42
2011-01-20 16:32 51°15.322 2°52.473 8.2 305 5.2 103310 43
2011-01-20 16:33 51°15.241 2°52.774 11 308 5.2 103310 43
2011-01-20 16:34 51°15.163 2°53.081 11.7 305 5.2 103320 43
2011-01-20 16:35 51°15.082 2°53.381 14.3 304 5.2 103310 43
2011-01-20 16:36 51°15.007 2°53.68 12.4 304 5.2 103320 43
2011-01-20 16:37 51°14.914 2°53.979 10.5 307 5.2 103320 44
2011-01-20 16:38 51°14.813 2°54.257 9 309 5.2 103330 43
2011-01-20 16:39 51°14.701 2°54.538 12 308 5.2 103320 43
2011-01-20 16:40 51°14.594 2°54.815 11.9 305 5.2 103320 43
2011-01-20 16:41 51°14.457 2°55.057 9 311 5.2 103330 44
2011-01-20 16:42 51°14.295 2°55.252 8.6 303 5.2 103340 44
2011-01-20 16:43 51°14.168 2°55.379 4.1 309 5.2 103360 43
2011-01-20 16:44 51°14.044 2°55.472 5.1 304 5.1 103360 43
2011-01-20 16:45 51°13.935 2°55.553 0.5 308 5.1 103360 44